sensor_id;sensor_type;location;lat;lon;timestamp;pressure;altitude;pressure_sealevel;temperature;humidity
70506;BME280;58032;49.820;6.274;2022-12-15T00:02:43;67390.78;;;-149.55;100.00
70506;BME280;58032;49.820;6.274;2022-12-15T00:05:28;67390.78;;;-149.55;100.00
70506;BME280;58032;49.820;6.274;2022-12-15T00:08:14;67390.78;;;-149.55;100.00
70506;BME280;58032;49.820;6.274;2022-12-15T00:11:01;67390.78;;;-149.55;100.00
70506;BME280;58032;49.820;6.274;2022-12-15T00:13:46;67390.78;;;-149.55;100.00
70506;BME280;58032;49.820;6.274;2022-12-15T00:16:32;67390.78;;;-149.55;100.00
70506;BME280;58032;49.820;6.274;2022-12-15T00:19:17;67390.78;;;-149.55;100.00
70506;BME280;58032;49.820;6.274;2022-12-15T00:22:03;67390.78;;;-149.55;100.00
70506;BME280;58032;49.820;6.274;2022-12-15T00:24:49;67390.78;;;-149.55;100.00
70506;BME280;58032;49.820;6.274;2022-12-15T00:27:34;67390.78;;;-149.55;100.00
70506;BME280;58032;49.820;6.274;2022-12-15T00:30:20;67390.78;;;-149.55;100.00
70506;BME280;58032;49.820;6.274;2022-12-15T00:33:10;67390.78;;;-149.55;100.00
70506;BME280;58032;49.820;6.274;2022-12-15T00:35:57;67390.78;;;-149.55;100.00
70506;BME280;58032;49.820;6.274;2022-12-15T00:38:44;67390.78;;;-149.55;100.00
70506;BME280;58032;49.820;6.274;2022-12-15T00:41:13;67390.78;;;-149.55;100.00
70506;BME280;58032;49.820;6.274;2022-12-15T00:43:40;67390.78;;;-149.55;100.00
70506;BME280;58032;49.820;6.274;2022-12-15T00:46:08;67390.78;;;-149.55;100.00
70506;BME280;58032;49.820;6.274;2022-12-15T00:48:53;67390.78;;;-149.55;100.00
70506;BME280;58032;49.820;6.274;2022-12-15T00:51:20;67390.78;;;-149.55;100.00
70506;BME280;58032;49.820;6.274;2022-12-15T00:53:47;67390.78;;;-149.55;100.00
70506;BME280;58032;49.820;6.274;2022-12-15T00:56:33;67390.78;;;-149.55;100.00
70506;BME280;58032;49.820;6.274;2022-12-15T00:59:18;67390.78;;;-149.55;100.00
70506;BME280;58032;49.820;6.274;2022-12-15T01:02:04;67390.78;;;-149.55;100.00
70506;BME280;58032;49.820;6.274;2022-12-15T01:04:49;67390.78;;;-149.55;100.00
70506;BME280;58032;49.820;6.274;2022-12-15T01:07:36;67390.78;;;-149.55;100.00
70506;BME280;58032;49.820;6.274;2022-12-15T01:10:21;67390.78;;;-149.55;100.00
70506;BME280;58032;49.820;6.274;2022-12-15T01:13:11;67390.78;;;-149.55;100.00
70506;BME280;58032;49.820;6.274;2022-12-15T01:15:57;67390.78;;;-149.55;100.00
70506;BME280;58032;49.820;6.274;2022-12-15T01:18:42;67390.78;;;-149.55;100.00
70506;BME280;58032;49.820;6.274;2022-12-15T01:21:30;67390.78;;;-149.55;100.00
70506;BME280;58032;49.820;6.274;2022-12-15T01:23:57;67390.78;;;-149.55;100.00
70506;BME280;58032;49.820;6.274;2022-12-15T01:26:24;67390.78;;;-149.55;100.00
70506;BME280;58032;49.820;6.274;2022-12-15T01:28:51;67390.78;;;-149.55;100.00
70506;BME280;58032;49.820;6.274;2022-12-15T01:31:17;67390.78;;;-149.55;100.00
70506;BME280;58032;49.820;6.274;2022-12-15T01:33:44;67390.78;;;-149.55;100.00
70506;BME280;58032;49.820;6.274;2022-12-15T01:36:11;67390.78;;;-149.55;100.00
70506;BME280;58032;49.820;6.274;2022-12-15T01:38:38;67390.78;;;-149.55;100.00
70506;BME280;58032;49.820;6.274;2022-12-15T01:41:08;67390.78;;;-149.55;100.00
70506;BME280;58032;49.820;6.274;2022-12-15T01:43:38;67390.78;;;-149.55;100.00
70506;BME280;58032;49.820;6.274;2022-12-15T01:46:10;67390.78;;;-149.55;100.00
70506;BME280;58032;49.820;6.274;2022-12-15T01:48:42;67390.78;;;-149.55;100.00
70506;BME280;58032;49.820;6.274;2022-12-15T01:51:31;67390.78;;;-149.55;100.00
70506;BME280;58032;49.820;6.274;2022-12-15T01:54:07;67390.78;;;-149.55;100.00
70506;BME280;58032;49.820;6.274;2022-12-15T01:56:38;67390.78;;;-149.55;100.00
70506;BME280;58032;49.820;6.274;2022-12-15T01:59:09;67390.78;;;-149.55;100.00
70506;BME280;58032;49.820;6.274;2022-12-15T02:01:38;67390.78;;;-149.55;100.00
70506;BME280;58032;49.820;6.274;2022-12-15T02:04:09;67390.78;;;-149.55;100.00
70506;BME280;58032;49.820;6.274;2022-12-15T02:06:35;67390.78;;;-149.55;100.00
70506;BME280;58032;49.820;6.274;2022-12-15T02:09:04;67390.78;;;-149.55;100.00
70506;BME280;58032;49.820;6.274;2022-12-15T02:14:46;67390.78;;;-149.55;100.00
70506;BME280;58032;49.820;6.274;2022-12-15T02:20:25;67390.78;;;-149.55;100.00
70506;BME280;58032;49.820;6.274;2022-12-15T02:31:35;67390.78;;;-149.55;100.00
70506;BME280;58032;49.820;6.274;2022-12-15T02:34:24;67390.78;;;-149.55;100.00
70506;BME280;58032;49.820;6.274;2022-12-15T02:39:54;67390.78;;;-149.55;100.00
70506;BME280;58032;49.820;6.274;2022-12-15T02:42:22;67390.78;;;-149.55;100.00
70506;BME280;58032;49.820;6.274;2022-12-15T02:44:55;67390.78;;;-149.55;100.00
70506;BME280;58032;49.820;6.274;2022-12-15T02:50:12;67390.78;;;-149.55;100.00
70506;BME280;58032;49.820;6.274;2022-12-15T02:53:24;67390.78;;;-149.55;100.00
70506;BME280;58032;49.820;6.274;2022-12-15T02:56:05;67390.78;;;-149.55;100.00
70506;BME280;58032;49.820;6.274;2022-12-15T02:58:52;67390.78;;;-149.55;100.00
70506;BME280;58032;49.820;6.274;2022-12-15T03:01:31;67390.78;;;-149.55;100.00
70506;BME280;58032;49.820;6.274;2022-12-15T03:04:02;67390.78;;;-149.55;100.00
70506;BME280;58032;49.820;6.274;2022-12-15T03:06:29;67390.78;;;-149.55;100.00
70506;BME280;58032;49.820;6.274;2022-12-15T03:08:56;67390.78;;;-149.55;100.00
70506;BME280;58032;49.820;6.274;2022-12-15T03:11:23;67390.78;;;-149.55;100.00
70506;BME280;58032;49.820;6.274;2022-12-15T03:13:51;67390.78;;;-149.55;100.00
70506;BME280;58032;49.820;6.274;2022-12-15T03:16:20;67390.78;;;-149.55;100.00
70506;BME280;58032;49.820;6.274;2022-12-15T03:18:51;67390.78;;;-149.55;100.00
70506;BME280;58032;49.820;6.274;2022-12-15T03:21:22;67390.78;;;-149.55;100.00
70506;BME280;58032;49.820;6.274;2022-12-15T03:23:54;67390.78;;;-149.55;100.00
70506;BME280;58032;49.820;6.274;2022-12-15T03:26:44;67390.78;;;-149.55;100.00
70506;BME280;58032;49.820;6.274;2022-12-15T03:29:17;67390.78;;;-149.55;100.00
70506;BME280;58032;49.820;6.274;2022-12-15T03:31:44;67390.78;;;-149.55;100.00
70506;BME280;58032;49.820;6.274;2022-12-15T03:34:11;67390.78;;;-149.55;100.00
70506;BME280;58032;49.820;6.274;2022-12-15T03:36:38;67390.78;;;-149.55;100.00
70506;BME280;58032;49.820;6.274;2022-12-15T03:39:05;67390.78;;;-149.55;100.00
70506;BME280;58032;49.820;6.274;2022-12-15T03:41:32;67390.78;;;-149.55;100.00
70506;BME280;58032;49.820;6.274;2022-12-15T03:43:59;67390.78;;;-149.55;100.00
70506;BME280;58032;49.820;6.274;2022-12-15T03:46:26;67390.78;;;-149.55;100.00
70506;BME280;58032;49.820;6.274;2022-12-15T03:48:53;67390.78;;;-149.55;100.00
70506;BME280;58032;49.820;6.274;2022-12-15T03:51:20;67390.78;;;-149.55;100.00
70506;BME280;58032;49.820;6.274;2022-12-15T03:53:47;67390.78;;;-149.55;100.00
70506;BME280;58032;49.820;6.274;2022-12-15T03:56:15;67390.78;;;-149.55;100.00
70506;BME280;58032;49.820;6.274;2022-12-15T03:58:42;67390.78;;;-149.55;100.00
70506;BME280;58032;49.820;6.274;2022-12-15T04:01:16;67390.78;;;-149.55;100.00
70506;BME280;58032;49.820;6.274;2022-12-15T04:03:44;67390.78;;;-149.55;100.00
70506;BME280;58032;49.820;6.274;2022-12-15T04:06:11;67390.78;;;-149.55;100.00
70506;BME280;58032;49.820;6.274;2022-12-15T04:08:38;67390.78;;;-149.55;100.00
70506;BME280;58032;49.820;6.274;2022-12-15T04:11:05;67390.78;;;-149.55;100.00
70506;BME280;58032;49.820;6.274;2022-12-15T04:13:32;67390.78;;;-149.55;100.00
70506;BME280;58032;49.820;6.274;2022-12-15T04:16:01;67390.78;;;-149.55;100.00
70506;BME280;58032;49.820;6.274;2022-12-15T04:18:28;67390.78;;;-149.55;100.00
70506;BME280;58032;49.820;6.274;2022-12-15T04:20:55;67390.78;;;-149.55;100.00
70506;BME280;58032;49.820;6.274;2022-12-15T04:23:22;67390.78;;;-149.55;100.00
70506;BME280;58032;49.820;6.274;2022-12-15T04:25:49;67390.78;;;-149.55;100.00
70506;BME280;58032;49.820;6.274;2022-12-15T04:28:34;67390.78;;;-149.55;100.00
70506;BME280;58032;49.820;6.274;2022-12-15T04:31:23;67390.78;;;-149.55;100.00
70506;BME280;58032;49.820;6.274;2022-12-15T04:34:14;67390.78;;;-149.55;100.00
70506;BME280;58032;49.820;6.274;2022-12-15T04:37:01;67390.78;;;-149.55;100.00
70506;BME280;58032;49.820;6.274;2022-12-15T04:39:49;67390.78;;;-149.55;100.00
70506;BME280;58032;49.820;6.274;2022-12-15T04:42:42;67390.78;;;-149.55;100.00
70506;BME280;58032;49.820;6.274;2022-12-15T04:45:29;67390.78;;;-149.55;100.00
70506;BME280;58032;49.820;6.274;2022-12-15T04:48:15;67390.78;;;-149.55;100.00
70506;BME280;58032;49.820;6.274;2022-12-15T04:51:00;67390.78;;;-149.55;100.00
70506;BME280;58032;49.820;6.274;2022-12-15T04:53:52;67390.78;;;-149.55;100.00
70506;BME280;58032;49.820;6.274;2022-12-15T04:56:38;67390.78;;;-149.55;100.00
70506;BME280;58032;49.820;6.274;2022-12-15T04:59:23;67390.78;;;-149.55;100.00
70506;BME280;58032;49.820;6.274;2022-12-15T05:02:09;67390.78;;;-149.55;100.00
70506;BME280;58032;49.820;6.274;2022-12-15T05:04:54;67390.78;;;-149.55;100.00
70506;BME280;58032;49.820;6.274;2022-12-15T05:07:40;67390.78;;;-149.55;100.00
70506;BME280;58032;49.820;6.274;2022-12-15T05:10:25;67390.78;;;-149.55;100.00
70506;BME280;58032;49.820;6.274;2022-12-15T05:13:11;67390.78;;;-149.55;100.00
70506;BME280;58032;49.820;6.274;2022-12-15T05:15:57;67390.78;;;-149.55;100.00
70506;BME280;58032;49.820;6.274;2022-12-15T05:18:42;67390.78;;;-149.55;100.00
70506;BME280;58032;49.820;6.274;2022-12-15T05:21:28;67390.78;;;-149.55;100.00
70506;BME280;58032;49.820;6.274;2022-12-15T05:24:13;67390.78;;;-149.55;100.00
70506;BME280;58032;49.820;6.274;2022-12-15T05:26:59;67390.78;;;-149.55;100.00
70506;BME280;58032;49.820;6.274;2022-12-15T05:29:44;67390.78;;;-149.55;100.00
70506;BME280;58032;49.820;6.274;2022-12-15T05:32:31;67390.78;;;-149.55;100.00
70506;BME280;58032;49.820;6.274;2022-12-15T05:34:59;67390.78;;;-149.55;100.00
70506;BME280;58032;49.820;6.274;2022-12-15T05:37:27;67390.78;;;-149.55;100.00
70506;BME280;58032;49.820;6.274;2022-12-15T05:39:53;67390.78;;;-149.55;100.00
70506;BME280;58032;49.820;6.274;2022-12-15T05:42:20;67390.78;;;-149.55;100.00
70506;BME280;58032;49.820;6.274;2022-12-15T05:44:47;67390.78;;;-149.55;100.00
70506;BME280;58032;49.820;6.274;2022-12-15T05:47:14;67390.78;;;-149.55;100.00
70506;BME280;58032;49.820;6.274;2022-12-15T05:49:41;67390.78;;;-149.55;100.00
70506;BME280;58032;49.820;6.274;2022-12-15T05:52:08;67390.78;;;-149.55;100.00
70506;BME280;58032;49.820;6.274;2022-12-15T05:54:35;67390.78;;;-149.55;100.00
70506;BME280;58032;49.820;6.274;2022-12-15T05:57:01;67390.78;;;-149.55;100.00
70506;BME280;58032;49.820;6.274;2022-12-15T05:59:28;67390.78;;;-149.55;100.00
70506;BME280;58032;49.820;6.274;2022-12-15T06:01:55;67390.78;;;-149.55;100.00
70506;BME280;58032;49.820;6.274;2022-12-15T06:04:22;67390.78;;;-149.55;100.00
70506;BME280;58032;49.820;6.274;2022-12-15T06:06:49;67390.78;;;-149.55;100.00
70506;BME280;58032;49.820;6.274;2022-12-15T06:09:16;67390.78;;;-149.55;100.00
70506;BME280;58032;49.820;6.274;2022-12-15T06:11:43;67390.78;;;-149.55;100.00
70506;BME280;58032;49.820;6.274;2022-12-15T06:14:10;67390.78;;;-149.55;100.00
70506;BME280;58032;49.820;6.274;2022-12-15T06:16:37;67390.78;;;-149.55;100.00
70506;BME280;58032;49.820;6.274;2022-12-15T06:19:08;67390.78;;;-149.55;100.00
70506;BME280;58032;49.820;6.274;2022-12-15T06:21:35;67390.78;;;-149.55;100.00
70506;BME280;58032;49.820;6.274;2022-12-15T06:24:03;67390.78;;;-149.55;100.00
70506;BME280;58032;49.820;6.274;2022-12-15T06:26:33;67390.78;;;-149.55;100.00
70506;BME280;58032;49.820;6.274;2022-12-15T06:29:02;67390.78;;;-149.55;100.00
70506;BME280;58032;49.820;6.274;2022-12-15T06:31:30;67390.78;;;-149.55;100.00
70506;BME280;58032;49.820;6.274;2022-12-15T06:33:58;67390.78;;;-149.55;100.00
70506;BME280;58032;49.820;6.274;2022-12-15T06:36:27;67390.78;;;-149.55;100.00
70506;BME280;58032;49.820;6.274;2022-12-15T06:39:00;67390.78;;;-149.55;100.00
70506;BME280;58032;49.820;6.274;2022-12-15T06:41:28;67390.78;;;-149.55;100.00
70506;BME280;58032;49.820;6.274;2022-12-15T06:43:56;67390.78;;;-149.55;100.00
70506;BME280;58032;49.820;6.274;2022-12-15T06:46:24;67390.78;;;-149.55;100.00
70506;BME280;58032;49.820;6.274;2022-12-15T06:48:51;67390.78;;;-149.55;100.00
70506;BME280;58032;49.820;6.274;2022-12-15T06:51:19;67390.78;;;-149.55;100.00
70506;BME280;58032;49.820;6.274;2022-12-15T06:53:46;67390.78;;;-149.55;100.00
70506;BME280;58032;49.820;6.274;2022-12-15T06:58:47;67390.78;;;-149.55;100.00
70506;BME280;58032;49.820;6.274;2022-12-15T07:01:15;67390.78;;;-149.55;100.00
70506;BME280;58032;49.820;6.274;2022-12-15T07:03:42;67390.78;;;-149.55;100.00
70506;BME280;58032;49.820;6.274;2022-12-15T07:06:11;67390.78;;;-149.55;100.00
70506;BME280;58032;49.820;6.274;2022-12-15T07:08:39;67390.78;;;-149.55;100.00
70506;BME280;58032;49.820;6.274;2022-12-15T07:11:09;67390.78;;;-149.55;100.00
70506;BME280;58032;49.820;6.274;2022-12-15T07:13:37;67390.78;;;-149.55;100.00
70506;BME280;58032;49.820;6.274;2022-12-15T07:16:05;67390.78;;;-149.55;100.00
70506;BME280;58032;49.820;6.274;2022-12-15T07:18:32;67390.78;;;-149.55;100.00
70506;BME280;58032;49.820;6.274;2022-12-15T07:21:04;67390.78;;;-149.55;100.00
70506;BME280;58032;49.820;6.274;2022-12-15T07:23:32;67390.78;;;-149.55;100.00
70506;BME280;58032;49.820;6.274;2022-12-15T07:26:18;67390.78;;;-149.55;100.00
70506;BME280;58032;49.820;6.274;2022-12-15T07:28:44;67390.78;;;-149.55;100.00
70506;BME280;58032;49.820;6.274;2022-12-15T07:31:11;67390.78;;;-149.55;100.00
70506;BME280;58032;49.820;6.274;2022-12-15T07:33:38;67390.78;;;-149.55;100.00
70506;BME280;58032;49.820;6.274;2022-12-15T07:36:06;67390.78;;;-149.55;100.00
70506;BME280;58032;49.820;6.274;2022-12-15T07:38:34;67390.78;;;-149.55;100.00
70506;BME280;58032;49.820;6.274;2022-12-15T07:41:03;67390.78;;;-149.55;100.00
70506;BME280;58032;49.820;6.274;2022-12-15T07:43:30;67390.78;;;-149.55;100.00
70506;BME280;58032;49.820;6.274;2022-12-15T07:45:58;67390.78;;;-149.55;100.00
70506;BME280;58032;49.820;6.274;2022-12-15T07:48:25;67390.78;;;-149.55;100.00
70506;BME280;58032;49.820;6.274;2022-12-15T07:50:53;67390.78;;;-149.55;100.00
70506;BME280;58032;49.820;6.274;2022-12-15T07:53:26;67390.78;;;-149.55;100.00
70506;BME280;58032;49.820;6.274;2022-12-15T07:55:57;67390.78;;;-149.55;100.00
70506;BME280;58032;49.820;6.274;2022-12-15T07:58:32;67390.78;;;-149.55;100.00
70506;BME280;58032;49.820;6.274;2022-12-15T08:01:01;67390.78;;;-149.55;100.00
70506;BME280;58032;49.820;6.274;2022-12-15T08:03:28;67390.78;;;-149.55;100.00
70506;BME280;58032;49.820;6.274;2022-12-15T08:05:55;67390.78;;;-149.55;100.00
70506;BME280;58032;49.820;6.274;2022-12-15T08:08:26;67390.78;;;-149.55;100.00
70506;BME280;58032;49.820;6.274;2022-12-15T08:10:53;67390.78;;;-149.55;100.00
70506;BME280;58032;49.820;6.274;2022-12-15T08:13:20;67390.78;;;-149.55;100.00
70506;BME280;58032;49.820;6.274;2022-12-15T08:16:04;67390.78;;;-149.55;100.00
70506;BME280;58032;49.820;6.274;2022-12-15T08:18:31;67390.78;;;-149.55;100.00
70506;BME280;58032;49.820;6.274;2022-12-15T08:21:02;67390.78;;;-149.55;100.00
70506;BME280;58032;49.820;6.274;2022-12-15T08:23:30;67390.78;;;-149.55;100.00
70506;BME280;58032;49.820;6.274;2022-12-15T08:26:08;67390.78;;;-149.55;100.00
70506;BME280;58032;49.820;6.274;2022-12-15T08:28:37;67390.78;;;-149.55;100.00
70506;BME280;58032;49.820;6.274;2022-12-15T08:31:07;67390.78;;;-149.55;100.00
70506;BME280;58032;49.820;6.274;2022-12-15T08:33:35;67390.78;;;-149.55;100.00
70506;BME280;58032;49.820;6.274;2022-12-15T08:36:07;67390.78;;;-149.55;100.00
70506;BME280;58032;49.820;6.274;2022-12-15T08:38:36;67390.78;;;-149.55;100.00
70506;BME280;58032;49.820;6.274;2022-12-15T08:41:13;67390.78;;;-149.55;100.00
70506;BME280;58032;49.820;6.274;2022-12-15T08:43:40;67390.78;;;-149.55;100.00
70506;BME280;58032;49.820;6.274;2022-12-15T08:46:14;67390.78;;;-149.55;100.00
70506;BME280;58032;49.820;6.274;2022-12-15T08:48:41;67390.78;;;-149.55;100.00
70506;BME280;58032;49.820;6.274;2022-12-15T08:51:08;67390.78;;;-149.55;100.00
70506;BME280;58032;49.820;6.274;2022-12-15T08:53:35;67390.78;;;-149.55;100.00
70506;BME280;58032;49.820;6.274;2022-12-15T08:56:08;67390.78;;;-149.55;100.00
70506;BME280;58032;49.820;6.274;2022-12-15T08:58:35;67390.78;;;-149.55;100.00
70506;BME280;58032;49.820;6.274;2022-12-15T09:01:22;67390.78;;;-149.55;100.00
70506;BME280;58032;49.820;6.274;2022-12-15T09:03:51;67390.78;;;-149.55;100.00
70506;BME280;58032;49.820;6.274;2022-12-15T09:06:30;67390.78;;;-149.55;100.00
70506;BME280;58032;49.820;6.274;2022-12-15T09:09:00;67390.78;;;-149.55;100.00
70506;BME280;58032;49.820;6.274;2022-12-15T09:11:28;67390.78;;;-149.55;100.00
70506;BME280;58032;49.820;6.274;2022-12-15T09:13:56;67390.78;;;-149.55;100.00
70506;BME280;58032;49.820;6.274;2022-12-15T09:16:23;67390.78;;;-149.55;100.00
70506;BME280;58032;49.820;6.274;2022-12-15T09:18:52;67390.78;;;-149.55;100.00
70506;BME280;58032;49.820;6.274;2022-12-15T09:21:21;67390.78;;;-149.55;100.00
70506;BME280;58032;49.820;6.274;2022-12-15T09:23:49;67390.78;;;-149.55;100.00
70506;BME280;58032;49.820;6.274;2022-12-15T09:26:18;67390.78;;;-149.55;100.00
70506;BME280;58032;49.820;6.274;2022-12-15T09:28:46;67390.78;;;-149.55;100.00
70506;BME280;58032;49.820;6.274;2022-12-15T09:31:26;67390.78;;;-149.55;100.00
70506;BME280;58032;49.820;6.274;2022-12-15T09:33:56;67390.78;;;-149.55;100.00
70506;BME280;58032;49.820;6.274;2022-12-15T09:36:24;67390.78;;;-149.55;100.00
70506;BME280;58032;49.820;6.274;2022-12-15T09:38:51;67390.78;;;-149.55;100.00
70506;BME280;58032;49.820;6.274;2022-12-15T09:41:26;67390.78;;;-149.55;100.00
70506;BME280;58032;49.820;6.274;2022-12-15T09:52:12;67390.78;;;-149.55;100.00
70506;BME280;58032;49.820;6.274;2022-12-15T09:54:39;67390.78;;;-149.55;100.00
70506;BME280;58032;49.820;6.274;2022-12-15T09:57:19;67390.78;;;-149.55;100.00
70506;BME280;58032;49.820;6.274;2022-12-15T10:02:33;67390.78;;;-149.55;100.00
70506;BME280;58032;49.820;6.274;2022-12-15T10:05:26;67390.78;;;-149.55;100.00
70506;BME280;58032;49.820;6.274;2022-12-15T10:08:09;67390.78;;;-149.55;100.00
70506;BME280;58032;49.820;6.274;2022-12-15T10:10:51;67390.78;;;-149.55;100.00
70506;BME280;58032;49.820;6.274;2022-12-15T10:13:32;67390.78;;;-149.55;100.00
70506;BME280;58032;49.820;6.274;2022-12-15T10:16:13;67390.78;;;-149.55;100.00
70506;BME280;58032;49.820;6.274;2022-12-15T10:18:49;67390.78;;;-149.55;100.00
70506;BME280;58032;49.820;6.274;2022-12-15T10:21:22;67390.78;;;-149.55;100.00
70506;BME280;58032;49.820;6.274;2022-12-15T10:23:53;67390.78;;;-149.55;100.00
70506;BME280;58032;49.820;6.274;2022-12-15T10:26:26;67390.78;;;-149.55;100.00
70506;BME280;58032;49.820;6.274;2022-12-15T10:29:21;67390.78;;;-149.55;100.00
70506;BME280;58032;49.820;6.274;2022-12-15T10:32:04;67390.78;;;-149.55;100.00
70506;BME280;58032;49.820;6.274;2022-12-15T10:34:34;67390.78;;;-149.55;100.00
70506;BME280;58032;49.820;6.274;2022-12-15T10:37:01;67390.78;;;-149.55;100.00
70506;BME280;58032;49.820;6.274;2022-12-15T10:39:38;67390.78;;;-149.55;100.00
70506;BME280;58032;49.820;6.274;2022-12-15T10:42:31;67390.78;;;-149.55;100.00
70506;BME280;58032;49.820;6.274;2022-12-15T10:45:34;67390.78;;;-149.55;100.00
70506;BME280;58032;49.820;6.274;2022-12-15T10:48:04;67390.78;;;-149.55;100.00
70506;BME280;58032;49.820;6.274;2022-12-15T10:50:33;67390.78;;;-149.55;100.00
70506;BME280;58032;49.820;6.274;2022-12-15T10:53:07;67390.78;;;-149.55;100.00
70506;BME280;58032;49.820;6.274;2022-12-15T10:58:13;67390.78;;;-149.55;100.00
70506;BME280;58032;49.820;6.274;2022-12-15T11:00:41;67390.78;;;-149.55;100.00
70506;BME280;58032;49.820;6.274;2022-12-15T11:03:35;67390.78;;;-149.55;100.00
70506;BME280;58032;49.820;6.274;2022-12-15T11:06:11;67390.78;;;-149.55;100.00
70506;BME280;58032;49.820;6.274;2022-12-15T11:08:41;67390.78;;;-149.55;100.00
70506;BME280;58032;49.820;6.274;2022-12-15T11:11:32;67390.78;;;-149.55;100.00
70506;BME280;58032;49.820;6.274;2022-12-15T11:14:26;67390.78;;;-149.55;100.00
70506;BME280;58032;49.820;6.274;2022-12-15T11:16:58;67390.78;;;-149.55;100.00
70506;BME280;58032;49.820;6.274;2022-12-15T11:19:38;67390.78;;;-149.55;100.00
70506;BME280;58032;49.820;6.274;2022-12-15T11:22:22;67390.78;;;-149.55;100.00
70506;BME280;58032;49.820;6.274;2022-12-15T11:25:01;67390.78;;;-149.55;100.00
70506;BME280;58032;49.820;6.274;2022-12-15T11:27:34;67390.78;;;-149.55;100.00
70506;BME280;58032;49.820;6.274;2022-12-15T11:32:31;67390.78;;;-149.55;100.00
70506;BME280;58032;49.820;6.274;2022-12-15T11:34:59;67390.78;;;-149.55;100.00
70506;BME280;58032;49.820;6.274;2022-12-15T11:37:39;67390.78;;;-149.55;100.00
70506;BME280;58032;49.820;6.274;2022-12-15T11:43:15;67390.78;;;-149.55;100.00
70506;BME280;58032;49.820;6.274;2022-12-15T11:51:13;67390.78;;;-149.55;100.00
70506;BME280;58032;49.820;6.274;2022-12-15T11:54:05;67390.78;;;-149.55;100.00
70506;BME280;58032;49.820;6.274;2022-12-15T11:56:45;67390.78;;;-149.55;100.00
70506;BME280;58032;49.820;6.274;2022-12-15T11:59:42;67390.78;;;-149.55;100.00
70506;BME280;58032;49.820;6.274;2022-12-15T12:07:48;67390.78;;;-149.55;100.00
70506;BME280;58032;49.820;6.274;2022-12-15T12:10:26;67390.78;;;-149.55;100.00
70506;BME280;58032;49.820;6.274;2022-12-15T12:13:03;67390.78;;;-149.55;100.00
70506;BME280;58032;49.820;6.274;2022-12-15T12:15:46;67390.78;;;-149.55;100.00
70506;BME280;58032;49.820;6.274;2022-12-15T12:18:26;67390.78;;;-149.55;100.00
70506;BME280;58032;49.820;6.274;2022-12-15T12:23:35;67390.78;;;-149.55;100.00
70506;BME280;58032;49.820;6.274;2022-12-15T12:31:39;67390.78;;;-149.55;100.00
70506;BME280;58032;49.820;6.274;2022-12-15T12:34:14;67390.78;;;-149.55;100.00
70506;BME280;58032;49.820;6.274;2022-12-15T12:36:43;67390.78;;;-149.55;100.00
70506;BME280;58032;49.820;6.274;2022-12-15T12:39:19;67390.78;;;-149.55;100.00
70506;BME280;58032;49.820;6.274;2022-12-15T12:44:33;67390.78;;;-149.55;100.00
70506;BME280;58032;49.820;6.274;2022-12-15T12:47:26;67390.78;;;-149.55;100.00
70506;BME280;58032;49.820;6.274;2022-12-15T12:49:58;67390.78;;;-149.55;100.00
70506;BME280;58032;49.820;6.274;2022-12-15T12:52:29;67390.78;;;-149.55;100.00
70506;BME280;58032;49.820;6.274;2022-12-15T12:55:01;67390.78;;;-149.55;100.00
70506;BME280;58032;49.820;6.274;2022-12-15T13:00:12;67390.78;;;-149.55;100.00
70506;BME280;58032;49.820;6.274;2022-12-15T13:05:40;67390.78;;;-149.55;100.00
70506;BME280;58032;49.820;6.274;2022-12-15T13:10:35;67390.78;;;-149.55;100.00
70506;BME280;58032;49.820;6.274;2022-12-15T13:16:09;67390.78;;;-149.55;100.00
70506;BME280;58032;49.820;6.274;2022-12-15T13:24:35;67390.78;;;-149.55;100.00
70506;BME280;58032;49.820;6.274;2022-12-15T13:32:32;96519.91;;;-1.95;100.00
70506;BME280;58032;49.820;6.274;2022-12-15T13:35:15;96515.16;;;-1.95;100.00
70506;BME280;58032;49.820;6.274;2022-12-15T13:37:54;96508.81;;;-1.88;100.00
70506;BME280;58032;49.820;6.274;2022-12-15T13:42:56;96504.84;;;-1.83;100.00
70506;BME280;58032;49.820;6.274;2022-12-15T13:45:31;96507.53;;;-1.72;100.00
70506;BME280;58032;49.820;6.274;2022-12-15T13:48:11;96504.06;;;-1.80;100.00
70506;BME280;58032;49.820;6.274;2022-12-15T13:51:04;96498.50;;;-1.77;100.00
70506;BME280;58032;49.820;6.274;2022-12-15T13:53:42;96500.28;;;-1.52;100.00
70506;BME280;58032;49.820;6.274;2022-12-15T13:58:43;67390.78;;;-149.55;100.00
70506;BME280;58032;49.820;6.274;2022-12-15T14:01:26;96500.28;;;-1.52;100.00
70506;BME280;58032;49.820;6.274;2022-12-15T14:04:11;67390.78;;;-149.55;100.00
70506;BME280;58032;49.820;6.274;2022-12-15T14:06:59;67390.78;;;-149.55;100.00
70506;BME280;58032;49.820;6.274;2022-12-15T14:09:31;67390.78;;;-149.55;100.00
70506;BME280;58032;49.820;6.274;2022-12-15T14:12:00;67390.78;;;-149.55;100.00
70506;BME280;58032;49.820;6.274;2022-12-15T14:14:32;67390.78;;;-149.55;100.00
70506;BME280;58032;49.820;6.274;2022-12-15T14:17:02;67390.78;;;-149.55;100.00
70506;BME280;58032;49.820;6.274;2022-12-15T14:19:43;67390.78;;;-149.55;100.00
70506;BME280;58032;49.820;6.274;2022-12-15T14:22:24;67390.78;;;-149.55;100.00
70506;BME280;58032;49.820;6.274;2022-12-15T14:25:08;67390.78;;;-149.55;100.00
70506;BME280;58032;49.820;6.274;2022-12-15T14:27:38;67390.78;;;-149.55;100.00
70506;BME280;58032;49.820;6.274;2022-12-15T14:30:30;67390.78;;;-149.55;100.00
70506;BME280;58032;49.820;6.274;2022-12-15T14:33:17;67390.78;;;-149.55;100.00
70506;BME280;58032;49.820;6.274;2022-12-15T14:35:49;67390.78;;;-149.55;100.00
70506;BME280;58032;49.820;6.274;2022-12-15T14:38:22;67390.78;;;-149.55;100.00
70506;BME280;58032;49.820;6.274;2022-12-15T14:40:51;67390.78;;;-149.55;100.00